createdAt,value
2022-09-13T00:01:12.494Z,16.80
2022-09-13T00:03:42.515Z,16.80
2022-09-13T00:06:19.057Z,16.70
2022-09-13T00:08:46.760Z,16.70
2022-09-13T00:11:26.314Z,16.70
2022-09-13T00:13:56.922Z,16.70
2022-09-13T00:16:29.605Z,16.70
2022-09-13T00:19:01.076Z,16.60
2022-09-13T00:21:31.140Z,16.60
2022-09-13T00:24:01.067Z,16.60
2022-09-13T00:26:31.493Z,16.60
2022-09-13T00:29:01.838Z,16.50
2022-09-13T00:31:29.340Z,16.50
2022-09-13T00:33:59.787Z,16.50
2022-09-13T00:36:29.213Z,16.50
2022-09-13T00:38:56.123Z,16.50
2022-09-13T00:41:23.336Z,16.50
2022-09-13T00:44:00.480Z,16.50
2022-09-13T00:46:42.069Z,16.40
2022-09-13T00:49:20.298Z,16.40
2022-09-13T00:51:58.781Z,16.40
2022-09-13T00:54:33.649Z,16.40
2022-09-13T00:57:06.989Z,16.40
2022-09-13T01:00:13.701Z,16.40
2022-09-13T01:02:46.283Z,16.30
2022-09-13T01:05:18.865Z,16.30
2022-09-13T01:07:48.779Z,16.30
2022-09-13T01:10:15.736Z,16.30
2022-09-13T01:13:14.722Z,16.30
2022-09-13T01:15:47.523Z,16.30
2022-09-13T01:18:15.423Z,16.30
2022-09-13T01:21:27.794Z,16.20
2022-09-13T01:24:15.911Z,16.20
2022-09-13T01:27:20.271Z,16.10
2022-09-13T01:30:11.260Z,16.10
2022-09-13T01:32:50.225Z,16.10
2022-09-13T01:36:01.476Z,16.00
2022-09-13T01:38:57.786Z,16.00
2022-09-13T01:42:01.941Z,15.90
2022-09-13T01:44:46.019Z,15.90
2022-09-13T01:47:29.978Z,15.80
2022-09-13T01:50:17.757Z,15.80
2022-09-13T01:52:53.188Z,15.80
2022-09-13T01:55:47.764Z,15.80
2022-09-13T01:58:40.344Z,15.80
2022-09-13T02:01:18.175Z,15.80
2022-09-13T02:03:57.682Z,15.80
2022-09-13T02:06:31.085Z,15.80
2022-09-13T02:09:03.857Z,15.80
2022-09-13T02:11:37.371Z,15.80
2022-09-13T02:14:17.185Z,15.80
2022-09-13T02:16:58.332Z,15.80
2022-09-13T02:19:34.368Z,15.80
2022-09-13T02:22:03.780Z,15.80
2022-09-13T02:24:43.906Z,15.80
2022-09-13T02:27:19.252Z,15.70
2022-09-13T02:29:50.997Z,15.80
2022-09-13T02:32:40.674Z,15.70
2022-09-13T02:35:27.397Z,15.70
2022-09-13T02:38:20.114Z,15.60
2022-09-13T02:41:00.245Z,15.60
2022-09-13T02:43:39.624Z,15.60
2022-09-13T02:46:58.605Z,15.50
2022-09-13T02:49:43.117Z,15.50
2022-09-13T02:52:22.282Z,15.40
2022-09-13T02:55:05.346Z,15.40
2022-09-13T02:58:03.086Z,15.40
2022-09-13T03:00:32.528Z,15.40
2022-09-13T03:03:07.244Z,15.40
2022-09-13T03:05:35.168Z,15.40
2022-09-13T03:08:03.316Z,15.50
2022-09-13T03:10:56.487Z,15.40
2022-09-13T03:13:46.090Z,15.40
2022-09-13T03:16:18.963Z,15.40
2022-09-13T03:19:18.089Z,15.40
2022-09-13T03:22:24.594Z,15.30
2022-09-13T03:25:38.742Z,15.30
2022-09-13T03:28:23.558Z,15.30
2022-09-13T03:31:02.635Z,15.30
2022-09-13T03:33:52.612Z,15.30
2022-09-13T03:36:29.468Z,15.30
2022-09-13T03:39:33.067Z,15.30
2022-09-13T03:42:06.416Z,15.30
2022-09-13T03:44:36.122Z,15.30
2022-09-13T03:47:08.075Z,15.30
2022-09-13T03:49:41.957Z,15.30
2022-09-13T03:52:10.052Z,15.30
2022-09-13T03:54:38.588Z,15.20
2022-09-13T03:57:22.900Z,15.20
2022-09-13T03:59:52.301Z,15.20
2022-09-13T04:02:21.310Z,15.20
2022-09-13T04:04:48.589Z,15.20
2022-09-13T04:07:27.656Z,15.10
2022-09-13T04:09:57.014Z,15.10
2022-09-13T04:12:23.864Z,15.10
2022-09-13T04:14:50.861Z,15.10
2022-09-13T04:17:18.093Z,15.10
2022-09-13T04:19:47.443Z,15.00
2022-09-13T04:22:15.437Z,15.00
2022-09-13T04:24:47.452Z,15.00
2022-09-13T04:27:19.003Z,15.00
2022-09-13T04:29:45.838Z,14.90
2022-09-13T04:32:15.883Z,14.90
2022-09-13T04:34:42.960Z,14.90
2022-09-13T04:37:10.591Z,14.90
2022-09-13T04:39:37.812Z,14.90
2022-09-13T04:42:07.910Z,14.90
2022-09-13T04:44:35.140Z,14.90
2022-09-13T04:47:05.054Z,14.90
2022-09-13T04:49:31.888Z,14.90
2022-09-13T04:52:03.332Z,14.90
2022-09-13T04:54:31.129Z,14.80
2022-09-13T04:57:00.088Z,14.80
2022-09-13T04:59:29.399Z,14.80
2022-09-13T05:01:59.335Z,14.80
2022-09-13T05:04:30.878Z,14.70
2022-09-13T05:07:00.770Z,14.70
2022-09-13T05:09:29.818Z,14.70
2022-09-13T05:12:00.115Z,14.70
2022-09-13T05:14:27.188Z,14.60
2022-09-13T05:16:54.062Z,14.70
2022-09-13T05:19:23.452Z,14.60
2022-09-13T05:21:50.367Z,14.70
2022-09-13T05:24:20.224Z,14.70
2022-09-13T05:26:48.295Z,14.70
2022-09-13T05:29:17.700Z,14.70
2022-09-13T05:31:47.109Z,14.70
2022-09-13T05:34:17.908Z,14.70
2022-09-13T05:36:54.029Z,14.70
2022-09-13T05:39:33.929Z,14.80
2022-09-13T05:42:06.595Z,14.80
2022-09-13T05:44:38.099Z,14.80
2022-09-13T05:47:05.670Z,14.80
2022-09-13T05:49:32.573Z,14.80
2022-09-13T05:51:59.601Z,14.80
2022-09-13T05:54:26.485Z,14.80
2022-09-13T05:56:57.386Z,14.80
2022-09-13T05:59:24.404Z,14.80
2022-09-13T06:01:51.404Z,14.80
2022-09-13T06:04:18.621Z,14.80
2022-09-13T06:06:45.494Z,14.90
2022-09-13T06:09:13.187Z,14.90
2022-09-13T06:11:40.207Z,15.00
2022-09-13T06:14:09.402Z,15.00
2022-09-13T06:16:38.748Z,15.10
2022-09-13T06:19:08.813Z,15.10
2022-09-13T06:21:35.915Z,15.20
2022-09-13T06:24:07.508Z,15.20
2022-09-13T06:26:34.993Z,15.10
2022-09-13T06:29:04.356Z,15.20
2022-09-13T06:31:33.740Z,15.30
2022-09-13T06:34:04.722Z,15.30
2022-09-13T06:36:33.862Z,15.40
2022-09-13T06:39:01.770Z,15.50
2022-09-13T06:41:33.354Z,15.50
2022-09-13T06:44:03.032Z,15.60
2022-09-13T06:46:33.359Z,15.60
2022-09-13T06:49:02.357Z,15.70
2022-09-13T06:51:32.620Z,15.80
2022-09-13T06:54:00.182Z,15.90
2022-09-13T06:56:37.357Z,15.90
2022-09-13T06:59:08.414Z,16.00
2022-09-13T07:01:43.461Z,16.10
2022-09-13T07:04:14.846Z,16.20
2022-09-13T07:06:44.950Z,16.20
2022-09-13T07:09:21.516Z,16.30
2022-09-13T07:11:55.714Z,16.40
2022-09-13T07:14:25.811Z,16.50
2022-09-13T07:16:57.666Z,16.60
2022-09-13T07:19:26.820Z,16.70
2022-09-13T07:21:57.497Z,16.80
2022-09-13T07:24:29.464Z,17.00
2022-09-13T07:26:56.416Z,17.10
2022-09-13T07:29:24.044Z,17.20
2022-09-13T07:31:54.680Z,17.30
2022-09-13T07:34:26.606Z,17.50
2022-09-13T07:36:54.037Z,17.70
2022-09-13T07:39:22.891Z,17.80
2022-09-13T07:41:50.968Z,18.00
2022-09-13T07:44:17.856Z,18.20
2022-09-13T07:46:47.144Z,18.40
2022-09-13T07:49:17.631Z,18.60
2022-09-13T07:51:45.504Z,19.00
2022-09-13T07:54:18.061Z,19.40
2022-09-13T07:56:50.365Z,19.90
2022-09-13T07:59:19.456Z,20.50
2022-09-13T08:01:50.047Z,21.10
2022-09-13T08:04:23.039Z,21.70
2022-09-13T08:06:50.017Z,22.30
2022-09-13T08:09:20.099Z,22.90
2022-09-13T08:11:52.991Z,23.50
2022-09-13T08:14:23.607Z,24.10
2022-09-13T08:16:53.310Z,24.60
2022-09-13T08:19:20.151Z,25.10
2022-09-13T08:21:47.765Z,25.50
2022-09-13T08:24:19.051Z,26.00
2022-09-13T08:26:49.002Z,26.40
2022-09-13T08:29:16.888Z,26.90
2022-09-13T08:31:48.604Z,27.30
2022-09-13T08:34:16.659Z,27.70
2022-09-13T08:36:44.175Z,28.10
2022-09-13T08:39:15.035Z,28.40
2022-09-13T08:41:46.506Z,28.60
2022-09-13T08:44:35.918Z,28.90
2022-09-13T08:47:35.321Z,29.30
2022-09-13T08:50:11.328Z,29.60
2022-09-13T08:52:57.215Z,29.90
2022-09-13T08:55:54.845Z,30.20
2022-09-13T08:58:52.462Z,30.50
2022-09-13T09:01:43.410Z,30.80
2022-09-13T09:04:34.619Z,30.90
2022-09-13T09:07:13.797Z,31.20
2022-09-13T09:10:11.559Z,31.40
2022-09-13T09:12:57.090Z,31.50
2022-09-13T09:15:29.539Z,31.60
2022-09-13T09:18:23.866Z,31.80
2022-09-13T09:20:56.759Z,31.90
2022-09-13T09:23:43.542Z,32.00
2022-09-13T09:26:20.715Z,32.20
2022-09-13T09:29:36.102Z,32.40
2022-09-13T09:32:52.574Z,32.60
2022-09-13T09:35:43.999Z,32.80
2022-09-13T09:38:42.693Z,33.00
2022-09-13T09:41:33.028Z,33.20
2022-09-13T09:44:35.200Z,33.20
2022-09-13T09:47:17.715Z,33.30
2022-09-13T09:50:13.060Z,33.30
2022-09-13T09:53:29.415Z,33.20
2022-09-13T09:56:24.627Z,33.20
2022-09-13T09:58:55.863Z,33.20
2022-09-13T10:01:29.066Z,33.20
2022-09-13T10:04:17.029Z,33.20
2022-09-13T10:06:47.070Z,33.20
2022-09-13T10:09:13.816Z,33.20
2022-09-13T10:11:59.936Z,33.10
2022-09-13T10:14:44.424Z,33.10
2022-09-13T10:17:17.843Z,33.10
2022-09-13T10:20:04.130Z,33.20
2022-09-13T10:22:35.301Z,33.30
2022-09-13T10:25:23.451Z,33.30
2022-09-13T10:27:57.315Z,33.40
2022-09-13T10:30:34.630Z,33.40
2022-09-13T10:33:02.857Z,33.50
2022-09-13T10:35:34.034Z,33.50
2022-09-13T10:38:01.150Z,33.60
2022-09-13T10:40:38.611Z,33.60
2022-09-13T10:43:16.262Z,33.70
2022-09-13T10:45:49.206Z,33.70
2022-09-13T10:48:18.636Z,33.70
2022-09-13T10:51:07.012Z,33.60
2022-09-13T10:53:40.929Z,33.60
2022-09-13T10:56:28.534Z,33.40
2022-09-13T10:59:22.369Z,33.40
2022-09-13T11:02:03.426Z,33.30
2022-09-13T11:05:11.446Z,33.20
2022-09-13T11:07:53.356Z,33.20
2022-09-13T11:11:01.332Z,33.20
2022-09-13T11:13:59.536Z,33.20
2022-09-13T11:16:35.157Z,33.10
2022-09-13T11:19:11.049Z,33.00
2022-09-13T11:21:55.067Z,32.70
2022-09-13T11:24:56.354Z,32.60
2022-09-13T11:27:49.586Z,32.40
2022-09-13T11:30:29.805Z,32.30
2022-09-13T11:33:26.592Z,32.10
2022-09-13T11:36:25.142Z,31.90
2022-09-13T11:39:01.542Z,31.80
2022-09-13T11:41:57.588Z,31.70
2022-09-13T11:44:39.327Z,31.60
2022-09-13T11:47:55.619Z,31.50
2022-09-13T11:50:27.432Z,31.50
2022-09-13T11:53:18.120Z,31.50
2022-09-13T11:55:51.496Z,31.50
2022-09-13T11:58:48.815Z,31.60
2022-09-13T12:01:27.058Z,31.60
2022-09-13T12:04:03.446Z,31.60
2022-09-13T12:06:46.542Z,31.60
2022-09-13T12:09:22.605Z,31.60
2022-09-13T12:12:00.997Z,31.60
2022-09-13T12:14:37.701Z,31.60
2022-09-13T12:17:23.196Z,31.60
2022-09-13T12:19:54.902Z,31.70
2022-09-13T12:22:30.868Z,31.70
2022-09-13T12:25:07.514Z,31.80
2022-09-13T12:27:54.392Z,31.70
2022-09-13T12:30:28.429Z,31.70
2022-09-13T12:32:58.845Z,31.60
2022-09-13T12:35:36.349Z,31.50
2022-09-13T12:38:27.151Z,31.30
2022-09-13T12:42:03.547Z,31.20
2022-09-13T12:44:51.462Z,31.20
2022-09-13T12:48:14.040Z,31.10
2022-09-13T12:51:11.286Z,31.00
2022-09-13T12:54:14.384Z,30.90
2022-09-13T12:57:24.417Z,30.80
2022-09-13T13:00:24.609Z,30.80
2022-09-13T13:03:15.988Z,30.70
2022-09-13T13:06:17.719Z,30.60
2022-09-13T13:08:57.521Z,30.50
2022-09-13T13:11:31.376Z,30.40
2022-09-13T13:14:09.444Z,30.40
2022-09-13T13:16:40.858Z,30.40
2022-09-13T13:19:32.689Z,30.30
2022-09-13T13:22:43.377Z,30.20
2022-09-13T13:25:38.946Z,30.20
2022-09-13T13:28:43.297Z,30.10
2022-09-13T13:31:30.396Z,30.00
2022-09-13T13:34:03.252Z,30.00
2022-09-13T13:36:34.882Z,30.00
2022-09-13T13:39:03.583Z,29.90
2022-09-13T13:41:36.090Z,29.80
2022-09-13T13:44:22.827Z,29.70
2022-09-13T13:47:08.047Z,29.60
2022-09-13T13:49:35.292Z,29.60
2022-09-13T13:52:14.110Z,29.60
2022-09-13T13:54:50.317Z,29.60
2022-09-13T13:57:38.751Z,29.50
2022-09-13T14:00:22.579Z,29.50
2022-09-13T14:02:53.509Z,29.50
2022-09-13T14:05:29.164Z,29.40
2022-09-13T14:08:23.665Z,29.40
2022-09-13T14:11:07.245Z,29.40
2022-09-13T14:14:11.363Z,29.30
2022-09-13T14:17:32.104Z,29.30
2022-09-13T14:20:13.081Z,29.30
2022-09-13T14:22:40.006Z,29.30
2022-09-13T14:25:19.252Z,29.20
2022-09-13T14:27:48.280Z,29.10
2022-09-13T14:30:35.619Z,29.00
2022-09-13T14:33:06.062Z,29.00
2022-09-13T14:35:37.882Z,28.90
2022-09-13T14:38:33.460Z,28.80
2022-09-13T14:41:16.841Z,28.70
2022-09-13T14:43:45.181Z,28.80
2022-09-13T14:46:41.948Z,28.70
2022-09-13T14:49:19.519Z,28.70
2022-09-13T14:51:49.196Z,28.70
2022-09-13T14:54:19.562Z,28.70
2022-09-13T14:56:52.685Z,28.60
2022-09-13T14:59:46.293Z,28.60
2022-09-13T15:02:24.307Z,28.50
2022-09-13T15:05:00.556Z,28.50
2022-09-13T15:07:34.842Z,28.40
2022-09-13T15:10:25.817Z,28.40
2022-09-13T15:13:00.714Z,28.30
2022-09-13T15:15:43.001Z,28.30
2022-09-13T15:18:15.903Z,28.20
2022-09-13T15:20:58.864Z,28.20
2022-09-13T15:23:39.293Z,28.10
2022-09-13T15:26:20.540Z,28.00
2022-09-13T15:28:50.154Z,27.90
2022-09-13T15:31:29.588Z,27.90
2022-09-13T15:34:18.779Z,27.90
2022-09-13T15:36:50.368Z,27.90
2022-09-13T15:39:24.099Z,27.80
2022-09-13T15:42:00.926Z,27.80
2022-09-13T15:44:32.533Z,27.80
2022-09-13T15:47:09.227Z,27.70
2022-09-13T15:49:41.096Z,27.70
2022-09-13T15:52:08.563Z,27.70
2022-09-13T15:54:46.788Z,27.60
2022-09-13T15:57:29.230Z,27.50
2022-09-13T16:00:04.104Z,27.50
2022-09-13T16:02:35.701Z,27.40
2022-09-13T16:05:05.559Z,27.40
2022-09-13T16:07:32.425Z,27.30
2022-09-13T16:09:59.654Z,27.30
2022-09-13T16:12:29.052Z,27.30
2022-09-13T16:14:55.890Z,27.40
2022-09-13T16:17:27.336Z,27.30
2022-09-13T16:19:59.763Z,27.40
2022-09-13T16:22:29.222Z,27.40
2022-09-13T16:24:59.093Z,27.40
2022-09-13T16:27:33.230Z,27.40
2022-09-13T16:30:06.329Z,27.30
2022-09-13T16:32:35.495Z,27.30
2022-09-13T16:35:02.366Z,27.30
2022-09-13T16:37:29.303Z,27.30
2022-09-13T16:40:00.060Z,27.20
2022-09-13T16:42:27.453Z,27.20
2022-09-13T16:44:54.414Z,27.20
2022-09-13T16:47:24.373Z,27.10
2022-09-13T16:49:54.081Z,27.10
2022-09-13T16:52:20.975Z,27.10
2022-09-13T16:54:49.436Z,27.00
2022-09-13T16:57:16.316Z,27.00
2022-09-13T16:59:43.248Z,27.00
2022-09-13T17:02:11.948Z,27.00
2022-09-13T17:04:38.958Z,26.90
2022-09-13T17:07:08.819Z,26.90
2022-09-13T17:09:40.699Z,26.80
2022-09-13T17:12:09.577Z,26.80
2022-09-13T17:14:42.598Z,26.70
2022-09-13T17:17:12.510Z,26.60
2022-09-13T17:19:42.557Z,26.60
2022-09-13T17:22:11.205Z,26.60
2022-09-13T17:24:41.050Z,26.50
2022-09-13T17:27:08.200Z,26.40
2022-09-13T17:29:36.016Z,26.30
2022-09-13T17:32:09.769Z,26.20
2022-09-13T17:34:39.113Z,26.10
2022-09-13T17:37:08.472Z,26.00
2022-09-13T17:39:40.349Z,25.90
2022-09-13T17:42:09.502Z,25.80
2022-09-13T17:44:36.373Z,25.70
2022-09-13T17:47:06.758Z,25.60
2022-09-13T17:49:33.736Z,25.50
2022-09-13T17:52:01.619Z,25.40
2022-09-13T17:54:33.595Z,25.30
2022-09-13T17:57:00.501Z,25.30
2022-09-13T17:59:30.497Z,25.20
2022-09-13T18:02:01.243Z,25.10
2022-09-13T18:04:28.746Z,25.00
2022-09-13T18:06:58.300Z,25.00
2022-09-13T18:09:27.409Z,25.00
2022-09-13T18:11:58.917Z,24.90
2022-09-13T18:14:28.469Z,24.90
2022-09-13T18:16:57.995Z,24.80
2022-09-13T18:19:44.775Z,24.80
2022-09-13T18:22:15.231Z,24.80
2022-09-13T18:24:44.596Z,24.70
2022-09-13T18:27:11.660Z,24.70
2022-09-13T18:29:38.554Z,24.60
2022-09-13T18:32:05.637Z,24.60
2022-09-13T18:34:32.540Z,24.60
2022-09-13T18:37:02.425Z,24.50
2022-09-13T18:39:29.421Z,24.50
2022-09-13T18:41:56.310Z,24.50
2022-09-13T18:44:23.171Z,24.50
2022-09-13T18:46:54.197Z,24.40
2022-09-13T18:49:21.407Z,24.40
2022-09-13T18:51:49.631Z,24.30
2022-09-13T18:54:18.655Z,24.30
2022-09-13T18:56:47.771Z,24.30
2022-09-13T18:59:17.353Z,24.30
2022-09-13T19:01:45.639Z,24.20
2022-09-13T19:04:20.249Z,24.20
2022-09-13T19:06:55.008Z,24.20
2022-09-13T19:09:22.882Z,24.20
2022-09-13T19:11:55.433Z,24.10
2022-09-13T19:14:30.596Z,24.10
2022-09-13T19:17:05.199Z,24.00
2022-09-13T19:19:35.560Z,24.00
2022-09-13T19:22:02.606Z,24.00
2022-09-13T19:24:33.794Z,24.00
2022-09-13T19:27:01.672Z,23.90
2022-09-13T19:29:28.499Z,23.90
2022-09-13T19:31:57.613Z,23.90
2022-09-13T19:34:24.616Z,23.90
2022-09-13T19:36:57.486Z,23.80
2022-09-13T19:39:29.241Z,23.80
2022-09-13T19:42:02.374Z,23.80
2022-09-13T19:44:31.863Z,23.80
2022-09-13T19:47:44.929Z,23.80
2022-09-13T19:49:49.761Z,23.70
2022-09-13T19:52:16.922Z,23.70
2022-09-13T19:54:48.873Z,23.70
2022-09-13T19:57:20.238Z,23.70
2022-09-13T19:59:51.898Z,23.60
2022-09-13T20:02:18.760Z,23.70
2022-09-13T20:04:48.300Z,23.70
2022-09-13T20:07:15.366Z,23.70
2022-09-13T20:09:47.033Z,23.70
2022-09-13T20:12:21.712Z,23.60
2022-09-13T20:14:49.738Z,23.60
2022-09-13T20:17:16.680Z,23.60
2022-09-13T20:19:47.819Z,23.60
2022-09-13T20:22:18.291Z,23.60
2022-09-13T20:24:45.128Z,23.60
2022-09-13T20:27:16.577Z,23.60
2022-09-13T20:29:45.511Z,23.60
2022-09-13T20:32:12.337Z,23.50
2022-09-13T20:34:44.275Z,23.50
2022-09-13T20:37:11.583Z,23.50
2022-09-13T20:39:38.481Z,23.40
2022-09-13T20:42:05.507Z,23.40
2022-09-13T20:44:32.361Z,23.40
2022-09-13T20:47:04.362Z,23.40
2022-09-13T20:49:33.737Z,23.40
2022-09-13T20:52:00.709Z,23.40
2022-09-13T20:54:27.531Z,23.40
2022-09-13T20:56:54.425Z,23.40
2022-09-13T20:59:22.418Z,23.40
2022-09-13T21:01:54.339Z,23.30
2022-09-13T21:04:21.672Z,23.30
2022-09-13T21:07:08.929Z,23.30
2022-09-13T21:09:45.187Z,23.30
2022-09-13T21:12:15.487Z,23.20
2022-09-13T21:14:42.444Z,23.30
2022-09-13T21:17:12.121Z,23.20
2022-09-13T21:19:39.019Z,23.20
2022-09-13T21:22:06.010Z,23.20
2022-09-13T21:24:32.869Z,23.10
2022-09-13T21:26:59.821Z,23.10
2022-09-13T21:29:29.225Z,23.10
2022-09-13T21:32:00.721Z,23.10
2022-09-13T21:34:29.513Z,23.10
2022-09-13T21:36:57.084Z,23.00
2022-09-13T21:39:26.706Z,23.00
2022-09-13T21:41:56.561Z,23.00
2022-09-13T21:44:28.051Z,23.00
2022-09-13T21:46:57.241Z,23.00
2022-09-13T21:49:24.102Z,23.00
2022-09-13T21:51:53.606Z,22.90
2022-09-13T21:54:23.101Z,22.90
2022-09-13T21:56:55.560Z,22.90
2022-09-13T21:59:23.626Z,22.90
2022-09-13T22:01:52.256Z,22.90
2022-09-13T22:04:25.400Z,22.90
2022-09-13T22:06:55.333Z,22.80
2022-09-13T22:09:27.266Z,22.80
2022-09-13T22:11:56.328Z,22.80
2022-09-13T22:14:26.635Z,22.80
2022-09-13T22:16:53.752Z,22.80
2022-09-13T22:19:26.491Z,22.70
2022-09-13T22:21:56.973Z,22.70
2022-09-13T22:24:26.939Z,22.70
2022-09-13T22:26:58.292Z,22.70
2022-09-13T22:29:29.215Z,22.70
2022-09-13T22:31:56.474Z,22.70
2022-09-13T22:34:25.384Z,22.70
2022-09-13T22:36:56.656Z,22.70
2022-09-13T22:39:26.708Z,22.60
2022-09-13T22:41:53.595Z,22.70
2022-09-13T22:44:20.517Z,22.70
2022-09-13T22:46:52.085Z,22.70
2022-09-13T22:49:20.231Z,22.70
2022-09-13T22:51:48.542Z,22.70
2022-09-13T22:54:19.366Z,22.70
2022-09-13T22:56:51.568Z,22.70
2022-09-13T22:59:21.433Z,22.70
2022-09-13T23:01:49.069Z,22.70
2022-09-13T23:04:16.957Z,22.70
2022-09-13T23:06:44.714Z,22.70
2022-09-13T23:09:16.770Z,22.60
2022-09-13T23:11:44.464Z,22.70
2022-09-13T23:14:14.555Z,22.60
2022-09-13T23:16:49.090Z,22.60
2022-09-13T23:19:18.235Z,22.60
2022-09-13T23:21:45.528Z,22.60
2022-09-13T23:24:18.563Z,22.60
2022-09-13T23:26:48.444Z,22.60
2022-09-13T23:29:19.660Z,22.60
2022-09-13T23:31:48.067Z,22.60
2022-09-13T23:34:20.703Z,22.60
2022-09-13T23:36:47.653Z,22.60
2022-09-13T23:39:21.827Z,22.60
2022-09-13T23:41:50.954Z,22.60
2022-09-13T23:44:20.373Z,22.60
2022-09-13T23:46:47.316Z,22.60
2022-09-13T23:49:19.305Z,22.60
2022-09-13T23:51:51.110Z,22.60
2022-09-13T23:54:20.333Z,22.50
2022-09-13T23:56:49.688Z,22.50
2022-09-13T23:59:16.752Z,22.50
